createdAt,value
2023-04-02T00:00:07.664Z,58.62
2023-04-02T00:02:34.196Z,61.08
2023-04-02T00:05:01.782Z,60.26
2023-04-02T00:07:28.621Z,59.55
2023-04-02T00:09:55.223Z,58.59
2023-04-02T00:12:22.080Z,57.87
2023-04-02T00:14:48.933Z,60.82
2023-04-02T00:17:18.018Z,60.87
2023-04-02T00:19:44.919Z,59.57
2023-04-02T00:22:11.446Z,57.64
2023-04-02T00:24:38.044Z,56.06
2023-04-02T00:27:04.714Z,55.17
2023-04-02T00:29:32.269Z,54.90
2023-04-02T00:31:58.824Z,54.48
2023-04-02T00:34:25.697Z,54.35
2023-04-02T00:36:52.417Z,54.16
2023-04-02T00:39:19.011Z,55.06
2023-04-02T00:41:45.509Z,56.26
2023-04-02T00:44:12.290Z,56.78
2023-04-02T00:46:38.870Z,58.52
2023-04-02T00:49:05.334Z,58.60
2023-04-02T00:51:31.902Z,59.06
2023-04-02T00:53:58.511Z,59.26
2023-04-02T00:56:25.276Z,58.93
2023-04-02T00:58:51.822Z,57.79
2023-04-02T01:01:18.450Z,56.95
2023-04-02T01:03:45.191Z,57.86
2023-04-02T01:06:11.995Z,60.66
2023-04-02T01:08:38.836Z,62.28
2023-04-02T01:11:06.691Z,62.13
2023-04-02T01:13:33.321Z,61.36
2023-04-02T01:16:00.160Z,59.62
2023-04-02T01:18:26.842Z,59.47
2023-04-02T01:20:53.412Z,60.09
2023-04-02T01:23:20.197Z,58.42
2023-04-02T01:25:46.784Z,57.84
2023-04-02T01:28:13.297Z,59.20
2023-04-02T01:30:40.116Z,58.50
2023-04-02T01:33:06.736Z,58.03
2023-04-02T01:35:33.581Z,57.42
2023-04-02T01:38:00.390Z,59.48
2023-04-02T01:40:26.918Z,60.35
2023-04-02T01:42:58.313Z,60.71
2023-04-02T01:45:24.985Z,62.52
2023-04-02T01:47:51.758Z,62.22
2023-04-02T01:50:19.792Z,63.36
2023-04-02T01:52:46.506Z,63.15
2023-04-02T01:55:13.056Z,63.05
2023-04-02T01:57:40.649Z,61.27
2023-04-02T02:00:07.649Z,60.62
2023-04-02T02:02:34.655Z,59.37
2023-04-02T02:05:01.299Z,58.11
2023-04-02T02:07:28.153Z,58.45
2023-04-02T02:09:54.686Z,59.03
2023-04-02T02:12:21.197Z,60.44
2023-04-02T02:14:47.929Z,61.95
2023-04-02T02:17:14.753Z,63.13
2023-04-02T02:19:41.216Z,63.31
2023-04-02T02:22:07.731Z,63.37
2023-04-02T02:24:34.286Z,63.16
2023-04-02T02:27:00.828Z,63.55
2023-04-02T02:29:29.419Z,63.05
2023-04-02T02:31:56.833Z,65.14
2023-04-02T02:34:23.332Z,64.98
2023-04-02T02:36:49.833Z,64.90
2023-04-02T02:39:17.390Z,64.88
2023-04-02T02:41:43.983Z,65.22
2023-04-02T02:44:10.443Z,65.45
2023-04-02T02:46:37.223Z,63.74
2023-04-02T02:49:03.857Z,62.04
2023-04-02T02:51:30.670Z,60.77
2023-04-02T02:53:57.241Z,61.24
2023-04-02T02:56:24.049Z,59.03
2023-04-02T02:58:50.858Z,59.70
2023-04-02T03:01:17.425Z,59.81
2023-04-02T03:03:44.247Z,60.74
2023-04-02T03:06:10.973Z,60.84
2023-04-02T03:08:37.844Z,58.34
2023-04-02T03:11:04.455Z,57.77
2023-04-02T03:13:30.982Z,57.43
2023-04-02T03:15:57.511Z,58.56
2023-04-02T03:18:24.133Z,57.59
2023-04-02T03:20:51.890Z,57.63
2023-04-02T03:23:19.304Z,57.25
2023-04-02T03:25:46.984Z,57.11
2023-04-02T03:28:13.561Z,57.70
2023-04-02T03:30:40.434Z,56.75
2023-04-02T03:33:07.452Z,56.92
2023-04-02T03:35:34.235Z,58.25
2023-04-02T03:38:01.334Z,59.18
2023-04-02T03:40:27.819Z,60.07
2023-04-02T03:42:54.351Z,60.75
2023-04-02T03:45:21.210Z,59.99
2023-04-02T03:47:47.780Z,60.35
2023-04-02T03:50:14.281Z,61.62
2023-04-02T03:52:41.096Z,59.14
2023-04-02T03:55:07.720Z,59.11
2023-04-02T03:57:34.402Z,61.35
2023-04-02T04:00:01.125Z,60.97
2023-04-02T04:02:28.510Z,60.96
2023-04-02T04:04:55.171Z,60.68
2023-04-02T04:07:22.525Z,60.10
2023-04-02T04:09:49.815Z,60.40
2023-04-02T04:12:19.494Z,59.50
2023-04-02T04:14:46.100Z,58.90
2023-04-02T04:17:12.683Z,57.95
2023-04-02T04:19:39.233Z,58.23
2023-04-02T04:22:05.844Z,57.67
2023-04-02T04:24:32.358Z,59.09
2023-04-02T04:26:59.170Z,60.07
2023-04-02T04:29:25.633Z,62.01
2023-04-02T04:31:52.752Z,61.06
2023-04-02T04:34:19.302Z,60.82
2023-04-02T04:36:45.957Z,60.59
2023-04-02T04:39:12.716Z,59.75
2023-04-02T04:41:40.096Z,60.25
2023-04-02T04:44:07.464Z,60.39
2023-04-02T04:46:35.247Z,61.10
2023-04-02T04:49:02.142Z,60.17
2023-04-02T04:51:28.894Z,59.53
2023-04-02T04:53:57.201Z,58.79
2023-04-02T04:56:23.711Z,59.04
2023-04-02T04:58:50.591Z,60.25
2023-04-02T05:01:18.164Z,59.17
2023-04-02T05:03:44.876Z,58.21
2023-04-02T05:06:11.419Z,57.98
2023-04-02T05:08:38.001Z,57.46
2023-04-02T05:11:04.649Z,57.04
2023-04-02T05:13:31.489Z,57.03
2023-04-02T05:16:00.089Z,57.22
2023-04-02T05:18:27.788Z,57.15
2023-04-02T05:20:56.052Z,57.28
2023-04-02T05:23:23.876Z,56.92
2023-04-02T05:25:50.434Z,56.45
2023-04-02T05:28:19.069Z,56.32
2023-04-02T05:30:45.680Z,56.60
2023-04-02T05:33:12.560Z,56.63
2023-04-02T05:35:39.397Z,56.76
2023-04-02T05:38:08.111Z,56.91
2023-04-02T05:40:35.681Z,56.33
2023-04-02T05:43:02.195Z,56.43
2023-04-02T05:45:30.028Z,56.96
2023-04-02T05:47:56.904Z,56.72
2023-04-02T05:50:25.815Z,56.65
2023-04-02T05:52:53.577Z,57.22
2023-04-02T05:55:20.341Z,57.71
2023-04-02T05:57:59.079Z,57.58
2023-04-02T06:00:34.220Z,57.56
2023-04-02T06:03:01.009Z,58.81
2023-04-02T06:05:27.562Z,58.96
2023-04-02T06:07:54.407Z,58.28
2023-04-02T06:10:21.783Z,57.65
2023-04-02T06:12:50.336Z,57.78
2023-04-02T06:15:17.238Z,58.02
2023-04-02T06:17:43.870Z,57.56
2023-04-02T06:20:10.753Z,57.03
2023-04-02T06:22:37.325Z,56.53
2023-04-02T06:25:03.906Z,56.97
2023-04-02T06:27:30.512Z,56.77
2023-04-02T06:29:57.085Z,56.34
2023-04-02T06:32:23.766Z,58.97
2023-04-02T06:34:50.324Z,60.33
2023-04-02T06:37:16.861Z,58.84
2023-04-02T06:39:43.818Z,61.16
2023-04-02T06:42:10.845Z,60.25
2023-04-02T06:44:37.366Z,59.45
2023-04-02T06:47:03.893Z,58.75
2023-04-02T06:49:30.421Z,58.07
2023-04-02T06:51:57.251Z,56.75
2023-04-02T06:54:24.090Z,57.16
2023-04-02T06:56:50.893Z,56.49
2023-04-02T06:59:17.786Z,56.59
2023-04-02T07:01:45.140Z,55.88
2023-04-02T07:04:11.993Z,54.84
2023-04-02T07:06:38.530Z,54.71
2023-04-02T07:09:11.015Z,55.36
2023-04-02T07:11:37.870Z,56.16
2023-04-02T07:14:05.195Z,56.08
2023-04-02T07:16:34.015Z,55.11
2023-04-02T07:19:00.588Z,54.79
2023-04-02T07:21:27.101Z,55.22
2023-04-02T07:23:55.379Z,55.62
2023-04-02T07:26:21.970Z,55.66
2023-04-02T07:28:48.682Z,55.85
2023-04-02T07:31:15.247Z,55.59
2023-04-02T07:33:42.255Z,54.87
2023-04-02T07:36:09.021Z,56.55
2023-04-02T07:38:38.378Z,56.07
2023-04-02T07:41:04.960Z,54.98
2023-04-02T07:43:31.846Z,55.56
2023-04-02T07:45:58.746Z,54.99
2023-04-02T07:48:27.469Z,56.62
2023-04-02T07:50:54.326Z,56.58
2023-04-02T07:53:24.749Z,55.60
2023-04-02T07:55:53.620Z,55.56
2023-04-02T07:58:20.954Z,54.45
2023-04-02T08:00:51.127Z,55.98
2023-04-02T08:03:19.351Z,54.65
2023-04-02T08:05:46.320Z,54.42
2023-04-02T08:08:12.975Z,54.11
2023-04-02T08:10:39.643Z,54.03
2023-04-02T08:13:06.448Z,55.17
2023-04-02T08:15:36.039Z,54.84
2023-04-02T08:18:11.603Z,55.25
2023-04-02T08:20:38.231Z,55.72
2023-04-02T08:23:07.724Z,56.38
2023-04-02T08:25:35.405Z,55.91
2023-04-02T08:28:04.200Z,59.61
2023-04-02T08:30:31.662Z,57.88
2023-04-02T08:32:58.542Z,58.02
2023-04-02T08:35:25.114Z,56.97
2023-04-02T08:37:51.730Z,56.63
2023-04-02T08:40:19.076Z,55.51
2023-04-02T08:42:45.852Z,55.56
2023-04-02T08:45:38.213Z,53.84
2023-04-02T08:48:01.557Z,54.66
2023-04-02T08:50:28.424Z,54.24
2023-04-02T08:52:59.245Z,53.24
2023-04-02T08:55:26.117Z,52.12
2023-04-02T08:57:52.685Z,51.76
2023-04-02T09:00:20.028Z,50.47
2023-04-02T09:02:47.378Z,49.20
2023-04-02T09:05:14.855Z,50.34
2023-04-02T09:10:22.534Z,47.21
2023-04-02T09:12:49.232Z,47.35
2023-04-02T09:15:16.050Z,48.23
2023-04-02T09:17:54.092Z,47.27
2023-04-02T09:20:23.193Z,47.30
2023-04-02T09:22:50.012Z,48.56
2023-04-02T09:25:18.441Z,50.27
2023-04-02T09:27:45.245Z,50.55
2023-04-02T09:30:17.586Z,50.51
2023-04-02T09:32:44.811Z,51.60
2023-04-02T09:35:22.441Z,49.93
2023-04-02T09:37:56.363Z,51.53
2023-04-02T09:43:16.811Z,50.57
2023-04-02T09:45:43.372Z,51.19
2023-04-02T09:48:10.137Z,54.86
2023-04-02T09:50:37.071Z,52.44
2023-04-02T09:53:06.387Z,51.44
2023-04-02T09:55:33.335Z,53.69
2023-04-02T09:58:01.994Z,52.74
2023-04-02T10:00:32.594Z,51.24
2023-04-02T10:02:59.487Z,51.87
2023-04-02T10:08:05.966Z,48.26
2023-04-02T10:10:32.559Z,48.33
2023-04-02T10:12:59.080Z,48.50
2023-04-02T10:15:25.632Z,47.92
2023-04-02T10:17:52.577Z,49.01
2023-04-02T10:20:19.158Z,49.45
2023-04-02T10:22:45.741Z,49.32
2023-04-02T10:25:12.376Z,47.66
2023-04-02T10:27:40.045Z,48.33
2023-04-02T10:30:06.642Z,50.03
2023-04-02T10:32:34.014Z,49.57
2023-04-02T10:35:02.897Z,50.58
2023-04-02T10:37:31.561Z,51.41
2023-04-02T10:39:58.430Z,51.08
2023-04-02T10:42:26.042Z,52.22
2023-04-02T10:44:55.538Z,53.06
2023-04-02T10:47:23.172Z,54.72
2023-04-02T10:49:51.610Z,54.01
2023-04-02T10:52:20.698Z,57.22
2023-04-02T10:54:54.668Z,56.82
2023-04-02T10:57:24.740Z,59.46
2023-04-02T10:59:51.414Z,55.57
2023-04-02T11:02:20.886Z,55.90
2023-04-02T11:04:47.601Z,55.30
2023-04-02T11:07:15.297Z,56.47
2023-04-02T11:09:41.940Z,55.91
2023-04-02T11:12:09.205Z,56.49
2023-04-02T11:20:33.010Z,59.21
2023-04-02T11:23:00.406Z,60.46
2023-04-02T11:25:29.933Z,59.94
2023-04-02T11:27:56.770Z,59.10
2023-04-02T11:30:25.085Z,58.66
2023-04-02T11:32:54.166Z,55.86
2023-04-02T11:35:20.845Z,57.88
2023-04-02T11:37:47.630Z,57.66
2023-04-02T11:40:15.466Z,58.27
2023-04-02T11:42:42.039Z,57.34
2023-04-02T11:45:09.623Z,57.10
2023-04-02T11:47:36.628Z,59.76
2023-04-02T11:52:54.459Z,59.03
2023-04-02T11:55:24.341Z,58.50
2023-04-02T12:00:33.576Z,58.27
2023-04-02T12:03:00.323Z,56.45
2023-04-02T12:05:30.768Z,54.07
2023-04-02T12:08:01.772Z,58.78
2023-04-02T12:10:28.372Z,60.41
2023-04-02T12:12:54.945Z,60.94
2023-04-02T12:15:22.323Z,60.34
2023-04-02T12:17:49.187Z,63.20
2023-04-02T12:20:16.008Z,63.92
2023-04-02T12:22:42.790Z,63.71
2023-04-02T12:25:09.303Z,62.57
2023-04-02T12:27:37.992Z,62.28
2023-04-02T12:30:04.755Z,60.58
2023-04-02T12:32:31.760Z,57.93
2023-04-02T12:34:58.454Z,57.89
2023-04-02T12:37:25.183Z,56.34
2023-04-02T12:39:51.722Z,55.51
2023-04-02T12:42:19.453Z,53.49
2023-04-02T12:44:51.017Z,53.18
2023-04-02T12:47:17.780Z,53.78
2023-04-02T12:49:46.254Z,51.94
2023-04-02T12:52:13.027Z,51.34
2023-04-02T12:54:41.241Z,52.45
2023-04-02T12:57:08.166Z,53.16
2023-04-02T12:59:34.906Z,50.76
2023-04-02T13:02:06.500Z,49.76
2023-04-02T13:04:33.470Z,49.96
2023-04-02T13:07:00.240Z,48.76
2023-04-02T13:09:28.557Z,51.05
2023-04-02T13:11:55.641Z,51.53
2023-04-02T13:14:22.263Z,53.87
2023-04-02T13:16:49.797Z,53.63
2023-04-02T13:19:16.634Z,54.05
2023-04-02T13:21:43.474Z,54.60
2023-04-02T13:24:12.476Z,54.29
2023-04-02T13:26:38.962Z,52.66
2023-04-02T13:29:05.677Z,53.80
2023-04-02T13:31:34.452Z,51.89
2023-04-02T13:34:01.090Z,52.42
2023-04-02T13:36:27.921Z,52.73
2023-04-02T13:38:54.857Z,51.50
2023-04-02T13:41:28.610Z,53.70
2023-04-02T13:43:56.893Z,53.96
2023-04-02T13:46:23.406Z,52.55
2023-04-02T13:48:50.961Z,52.07
2023-04-02T13:51:18.545Z,52.06
2023-04-02T13:53:46.077Z,52.17
2023-04-02T13:56:12.588Z,51.47
2023-04-02T13:58:40.409Z,50.47
2023-04-02T14:01:08.003Z,50.40
2023-04-02T14:03:34.824Z,53.68
2023-04-02T14:06:01.402Z,53.33
2023-04-02T14:08:28.282Z,51.61
2023-04-02T14:10:54.774Z,51.79
2023-04-02T14:13:21.559Z,49.50
2023-04-02T14:15:51.712Z,48.70
2023-04-02T14:18:18.295Z,50.03
2023-04-02T14:20:45.118Z,50.23
2023-04-02T14:23:11.680Z,49.90
2023-04-02T14:25:38.472Z,52.88
2023-04-02T14:28:06.569Z,52.16
2023-04-02T14:30:35.821Z,52.19
2023-04-02T14:33:02.880Z,53.60
2023-04-02T14:35:29.788Z,52.52
2023-04-02T14:37:58.818Z,50.11
2023-04-02T14:40:26.212Z,51.19
2023-04-02T14:42:52.658Z,50.85
2023-04-02T14:45:19.444Z,49.66
2023-04-02T14:47:46.025Z,51.30
2023-04-02T14:50:12.641Z,49.46
2023-04-02T14:52:41.716Z,48.63
2023-04-02T14:55:08.413Z,47.10
2023-04-02T14:57:42.565Z,46.30
2023-04-02T15:00:13.007Z,46.38
2023-04-02T15:02:41.598Z,46.92
2023-04-02T15:05:08.470Z,49.89
2023-04-02T15:07:37.518Z,49.93
2023-04-02T15:10:06.549Z,48.97
2023-04-02T15:15:01.352Z,52.80
2023-04-02T15:17:27.991Z,53.81
2023-04-02T15:19:54.771Z,51.83
2023-04-02T15:22:23.758Z,50.31
2023-04-02T15:24:50.346Z,52.16
2023-04-02T15:27:25.065Z,51.90
2023-04-02T15:29:54.538Z,51.89
2023-04-02T15:32:22.346Z,51.15
2023-04-02T15:41:00.014Z,50.41
2023-04-02T15:43:26.773Z,49.76
2023-04-02T15:45:56.160Z,48.83
2023-04-02T15:48:23.084Z,49.75
2023-04-02T15:53:36.393Z,49.88
2023-04-02T15:56:03.153Z,51.66
2023-04-02T15:58:30.136Z,50.80
2023-04-02T16:01:00.823Z,49.67
2023-04-02T16:03:29.021Z,49.49
2023-04-02T16:05:55.819Z,49.16
2023-04-02T16:08:22.375Z,49.52
2023-04-02T16:10:49.423Z,49.63
2023-04-02T16:13:16.291Z,50.11
2023-04-02T16:15:43.097Z,50.83
2023-04-02T16:21:26.452Z,51.70
2023-04-02T16:23:53.260Z,51.60
2023-04-02T16:26:22.234Z,51.44
2023-04-02T16:28:49.118Z,52.53
2023-04-02T16:31:17.135Z,53.43
2023-04-02T16:33:46.277Z,54.03
2023-04-02T16:36:14.370Z,52.86
2023-04-02T16:38:40.947Z,51.46
2023-04-02T16:41:09.196Z,51.60
2023-04-02T16:43:38.489Z,52.10
2023-04-02T16:46:05.349Z,53.11
2023-04-02T16:51:26.199Z,52.80
2023-04-02T16:54:01.694Z,53.31
2023-04-02T16:56:29.027Z,53.34
2023-04-02T16:58:58.292Z,53.07
2023-04-02T17:01:24.917Z,53.08
2023-04-02T17:03:52.378Z,54.68
2023-04-02T17:06:22.514Z,54.35
2023-04-02T17:08:49.103Z,56.23
2023-04-02T17:11:16.538Z,55.61
2023-04-02T17:13:45.240Z,54.84
2023-04-02T17:16:11.921Z,54.49
2023-04-02T17:18:40.452Z,56.22
2023-04-02T17:21:08.939Z,57.30
2023-04-02T17:23:53.224Z,58.53
2023-04-02T17:26:23.309Z,58.97
2023-04-02T17:28:50.109Z,58.03
2023-04-02T17:31:17.809Z,56.73
2023-04-02T17:33:46.852Z,56.19
2023-04-02T17:36:13.757Z,56.58
2023-04-02T17:38:40.534Z,56.14
2023-04-02T17:41:08.681Z,56.00
2023-04-02T17:43:37.616Z,56.95
2023-04-02T17:46:04.340Z,55.31
2023-04-02T17:48:33.340Z,55.70
2023-04-02T17:51:06.318Z,55.58
2023-04-02T17:53:33.234Z,55.46
2023-04-02T17:58:49.867Z,54.71
2023-04-02T18:01:18.848Z,56.28
2023-04-02T18:03:46.240Z,56.47
2023-04-02T18:06:12.849Z,58.37
2023-04-02T18:08:44.425Z,58.87
2023-04-02T18:11:13.260Z,56.48
2023-04-02T18:13:43.668Z,57.53
2023-04-02T18:16:10.565Z,57.71
2023-04-02T18:18:37.400Z,57.29
2023-04-02T18:21:03.964Z,57.47
2023-04-02T18:23:30.993Z,59.41
2023-04-02T18:25:57.635Z,57.31
2023-04-02T18:28:24.492Z,56.61
2023-04-02T18:30:51.242Z,57.08
2023-04-02T18:36:13.709Z,59.63
2023-04-02T18:38:40.298Z,58.10
2023-04-02T18:41:06.857Z,56.73
2023-04-02T18:43:35.718Z,59.82
2023-04-02T18:46:02.665Z,56.45
2023-04-02T18:48:30.421Z,55.37
2023-04-02T19:03:54.465Z,52.47
2023-04-02T19:06:25.247Z,52.57
2023-04-02T19:08:55.172Z,52.46
2023-04-02T19:14:21.838Z,51.33
2023-04-02T19:16:49.567Z,51.57
2023-04-02T19:19:17.759Z,53.45
2023-04-02T19:21:44.721Z,53.95
2023-04-02T19:24:11.880Z,54.79
2023-04-02T19:26:40.666Z,54.34
2023-04-02T19:29:07.640Z,55.16
2023-04-02T19:31:35.996Z,55.49
2023-04-02T19:37:05.833Z,55.62
2023-04-02T19:39:34.373Z,56.58
2023-04-02T19:42:01.268Z,55.91
2023-04-02T19:44:28.905Z,56.62
2023-04-02T19:46:55.609Z,55.95
2023-04-02T19:49:22.584Z,55.91
2023-04-02T19:54:30.519Z,56.58
2023-04-02T19:56:57.978Z,56.22
2023-04-02T19:59:26.810Z,55.69
2023-04-02T20:01:55.947Z,55.77
2023-04-02T20:04:22.523Z,54.98
2023-04-02T20:06:53.881Z,55.62
2023-04-02T20:09:20.689Z,55.76
2023-04-02T20:11:47.307Z,55.98
2023-04-02T20:14:16.277Z,56.01
2023-04-02T20:16:45.890Z,54.75
2023-04-02T20:19:12.620Z,56.33
2023-04-02T20:21:46.710Z,55.61
2023-04-02T20:24:13.956Z,55.32
2023-04-02T20:26:40.695Z,54.90
2023-04-02T20:29:07.594Z,54.49
2023-04-02T20:31:37.917Z,55.43
2023-04-02T20:34:04.976Z,55.24
2023-04-02T20:36:35.979Z,55.55
2023-04-02T20:39:06.318Z,55.13
2023-04-02T20:41:35.264Z,55.14
2023-04-02T20:44:01.840Z,54.95
2023-04-02T20:46:29.444Z,54.57
2023-04-02T20:49:05.615Z,54.75
2023-04-02T20:51:33.870Z,54.65
2023-04-02T20:54:02.653Z,53.27
2023-04-02T20:56:36.630Z,53.44
2023-04-02T20:59:06.344Z,53.65
2023-04-02T21:01:34.696Z,53.44
2023-04-02T21:04:03.023Z,54.11
2023-04-02T21:06:30.621Z,53.95
2023-04-02T21:08:58.197Z,53.48
2023-04-02T21:11:27.747Z,54.66
2023-04-02T21:13:54.715Z,54.79
2023-04-02T21:16:26.171Z,55.28
2023-04-02T21:18:56.680Z,55.83
2023-04-02T21:21:23.210Z,55.28
2023-04-02T21:23:50.251Z,54.79
2023-04-02T21:26:19.888Z,55.17
2023-04-02T21:28:50.100Z,55.79
2023-04-02T21:31:16.746Z,55.32
2023-04-02T21:33:45.418Z,55.59
2023-04-02T21:36:13.011Z,55.24
2023-04-02T21:38:48.696Z,55.26
2023-04-02T21:41:16.722Z,55.33
2023-04-02T21:43:46.849Z,55.71
2023-04-02T21:46:13.856Z,55.27
2023-04-02T21:48:44.729Z,55.33
2023-04-02T21:51:11.344Z,55.34
2023-04-02T21:56:29.926Z,54.82
2023-04-02T21:58:57.088Z,54.99
2023-04-02T22:01:31.059Z,54.82
2023-04-02T22:03:58.159Z,55.58
2023-04-02T22:06:27.029Z,55.02
2023-04-02T22:09:03.823Z,54.86
2023-04-02T22:11:32.487Z,55.28
2023-04-02T22:13:59.034Z,55.30
2023-04-02T22:16:25.855Z,55.50
2023-04-02T22:18:52.659Z,56.22
2023-04-02T22:21:19.574Z,56.91
2023-04-02T22:23:47.233Z,56.45
2023-04-02T22:26:15.874Z,57.27
2023-04-02T22:28:42.734Z,57.17
2023-04-02T22:31:12.351Z,57.64
2023-04-02T22:33:40.049Z,57.68
2023-04-02T22:36:08.644Z,56.46
2023-04-02T22:38:38.298Z,56.54
2023-04-02T22:41:06.001Z,55.90
2023-04-02T22:44:05.050Z,54.74
2023-04-02T22:46:35.215Z,56.18
2023-04-02T22:49:05.921Z,55.39
2023-04-02T22:51:34.355Z,56.07
2023-04-02T22:57:08.425Z,56.14
2023-04-02T22:59:44.349Z,56.61
2023-04-02T23:05:00.986Z,56.20
2023-04-02T23:07:29.373Z,56.47
2023-04-02T23:09:55.937Z,55.59
2023-04-02T23:12:23.806Z,53.70
2023-04-02T23:14:53.522Z,53.72
2023-04-02T23:17:20.453Z,52.88
2023-04-02T23:19:47.889Z,53.08
2023-04-02T23:22:19.358Z,54.61
2023-04-02T23:24:51.217Z,55.16
2023-04-02T23:27:25.186Z,53.18
2023-04-02T23:29:52.885Z,53.38
2023-04-02T23:32:25.758Z,51.73
2023-04-02T23:34:52.742Z,52.29
2023-04-02T23:40:12.668Z,50.81
2023-04-02T23:42:41.090Z,50.76
2023-04-02T23:45:11.112Z,51.48
2023-04-02T23:47:41.495Z,51.77
2023-04-02T23:50:10.677Z,52.08
2023-04-02T23:52:44.754Z,52.17
2023-04-02T23:58:28.359Z,54.75
